createdAt,value
2019-02-15T00:01:06.901Z,54.21
2019-02-15T00:03:36.373Z,54.18
2019-02-15T00:06:06.206Z,54.61
2019-02-15T00:08:36.166Z,54.64
2019-02-15T00:11:05.714Z,54.79
2019-02-15T00:13:35.401Z,55.09
2019-02-15T00:16:04.623Z,55.08
2019-02-15T00:18:55.655Z,55.31
2019-02-15T00:21:27.642Z,55.51
2019-02-15T00:23:56.911Z,55.51
2019-02-15T00:26:26.130Z,55.66
2019-02-15T00:28:55.428Z,55.48
2019-02-15T00:31:24.670Z,55.47
2019-02-15T00:33:53.996Z,55.71
2019-02-15T00:36:23.278Z,55.06
2019-02-15T00:38:52.534Z,54.66
2019-02-15T00:41:21.820Z,54.08
2019-02-15T00:43:51.085Z,53.84
2019-02-15T00:46:51.666Z,53.85
2019-02-15T00:49:52.280Z,54.11
2019-02-15T00:52:43.441Z,54.41
2019-02-15T00:55:27.001Z,54.05
2019-02-15T00:58:18.154Z,54.24
2019-02-15T01:01:09.351Z,54.55
2019-02-15T01:04:16.459Z,54.68
2019-02-15T01:07:39.317Z,54.95
2019-02-15T01:10:33.397Z,55.44
2019-02-15T01:13:12.881Z,55.80
2019-02-15T01:15:42.180Z,56.18
2019-02-15T01:18:11.476Z,56.66
2019-02-15T01:20:40.726Z,56.59
2019-02-15T01:23:10.984Z,56.71
2019-02-15T01:25:49.649Z,56.94
2019-02-15T01:28:36.117Z,57.21
2019-02-15T01:31:25.971Z,57.51
2019-02-15T01:34:26.212Z,58.02
2019-02-15T01:37:06.467Z,58.31
2019-02-15T01:39:44.528Z,58.69
2019-02-15T01:42:32.100Z,58.64
2019-02-15T01:45:14.741Z,58.47
2019-02-15T01:47:46.797Z,58.72
2019-02-15T01:50:16.033Z,58.65
2019-02-15T01:52:45.283Z,58.93
2019-02-15T01:55:14.528Z,59.10
2019-02-15T01:57:43.817Z,59.13
2019-02-15T02:00:15.718Z,59.50
2019-02-15T02:02:44.955Z,59.66
2019-02-15T02:05:14.253Z,59.93
2019-02-15T02:07:43.504Z,59.64
2019-02-15T02:10:12.730Z,59.51
2019-02-15T02:12:42.062Z,59.26
2019-02-15T02:15:12.033Z,59.00
2019-02-15T02:17:41.270Z,59.38
2019-02-15T02:20:11.039Z,59.81
2019-02-15T02:22:40.318Z,60.08
2019-02-15T02:25:09.728Z,60.40
2019-02-15T02:27:39.410Z,60.48
2019-02-15T02:30:09.861Z,60.35
2019-02-15T02:32:39.186Z,60.19
2019-02-15T02:35:08.804Z,59.98
2019-02-15T02:37:38.079Z,59.90
2019-02-15T02:40:12.085Z,59.62
2019-02-15T02:42:41.371Z,59.54
2019-02-15T02:45:10.615Z,59.87
2019-02-15T02:47:39.852Z,60.29
2019-02-15T02:50:09.064Z,60.50
2019-02-15T02:52:38.852Z,60.71
2019-02-15T02:55:32.123Z,61.03
2019-02-15T02:58:01.340Z,61.07
2019-02-15T03:00:33.627Z,61.22
2019-02-15T03:03:01.845Z,61.33
2019-02-15T03:05:31.049Z,61.37
2019-02-15T03:08:00.355Z,61.43
2019-02-15T03:10:29.631Z,61.48
2019-02-15T03:12:58.846Z,61.69
2019-02-15T03:15:28.070Z,61.78
2019-02-15T03:17:57.295Z,61.83
2019-02-15T03:20:31.190Z,61.71
2019-02-15T03:22:57.573Z,61.50
2019-02-15T03:25:26.790Z,61.94
2019-02-15T03:27:56.030Z,62.20
2019-02-15T03:30:25.263Z,62.12
2019-02-15T03:32:54.538Z,62.13
2019-02-15T03:35:23.747Z,61.75
2019-02-15T03:38:07.445Z,62.10
2019-02-15T03:40:42.889Z,62.32
2019-02-15T03:43:12.196Z,62.61
2019-02-15T03:45:41.425Z,62.40
2019-02-15T03:48:10.708Z,62.48
2019-02-15T03:50:39.922Z,62.66
2019-02-15T03:53:09.622Z,62.63
2019-02-15T03:55:38.952Z,62.75
2019-02-15T03:58:08.190Z,62.94
2019-02-15T04:00:37.641Z,63.31
2019-02-15T04:03:06.870Z,63.40
2019-02-15T04:05:36.082Z,63.49
2019-02-15T04:08:05.429Z,63.49
2019-02-15T04:10:34.671Z,63.97
2019-02-15T04:13:03.901Z,63.86
2019-02-15T04:15:33.181Z,63.74
2019-02-15T04:18:02.425Z,63.98
2019-02-15T04:23:59.872Z,63.64
2019-02-15T04:26:29.194Z,63.14
2019-02-15T04:28:58.427Z,62.99
2019-02-15T04:31:27.685Z,63.10
2019-02-15T04:33:57.205Z,63.06
2019-02-15T04:36:26.548Z,63.21
2019-02-15T04:38:55.788Z,63.49
2019-02-15T04:41:25.020Z,63.54
2019-02-15T04:43:54.436Z,63.83
2019-02-15T04:46:23.666Z,63.82
2019-02-15T04:48:52.882Z,64.62
2019-02-15T04:51:22.168Z,64.84
2019-02-15T04:53:51.429Z,64.62
2019-02-15T04:56:20.718Z,64.34
2019-02-15T04:58:51.727Z,63.91
2019-02-15T05:01:20.962Z,64.26
2019-02-15T05:03:50.183Z,64.59
2019-02-15T05:06:37.774Z,64.52
2019-02-15T05:09:07.020Z,64.27
2019-02-15T05:11:36.283Z,64.66
2019-02-15T05:14:06.227Z,64.95
2019-02-15T05:16:35.561Z,64.77
2019-02-15T05:19:04.784Z,64.93
2019-02-15T05:21:34.050Z,65.03
2019-02-15T05:24:03.682Z,64.94
2019-02-15T05:26:32.954Z,65.29
2019-02-15T05:29:02.166Z,65.22
2019-02-15T05:31:31.452Z,65.12
2019-02-15T05:34:00.730Z,64.57
2019-02-15T05:36:29.987Z,64.50
2019-02-15T05:38:59.217Z,64.56
2019-02-15T05:41:28.514Z,64.73
2019-02-15T05:43:58.148Z,64.62
2019-02-15T05:46:27.357Z,64.51
2019-02-15T05:48:56.575Z,64.50
2019-02-15T05:51:25.815Z,64.30
2019-02-15T05:53:55.097Z,64.19
2019-02-15T05:56:24.393Z,63.71
2019-02-15T05:58:53.678Z,63.85
2019-02-15T06:01:24.816Z,63.95
2019-02-15T06:03:54.117Z,64.10
2019-02-15T06:06:23.401Z,64.50
2019-02-15T06:08:52.701Z,64.78
2019-02-15T06:11:21.942Z,65.26
2019-02-15T06:13:51.225Z,65.15
2019-02-15T06:16:20.513Z,64.83
2019-02-15T06:18:49.743Z,64.99
2019-02-15T06:21:19.060Z,64.90
2019-02-15T06:23:48.299Z,65.23
2019-02-15T06:26:18.009Z,65.44
2019-02-15T06:28:47.252Z,65.80
2019-02-15T06:31:16.525Z,66.00
2019-02-15T06:33:45.802Z,66.33
2019-02-15T06:36:15.083Z,66.30
2019-02-15T06:38:44.304Z,66.47
2019-02-15T06:41:13.597Z,66.37
2019-02-15T06:43:43.722Z,66.47
2019-02-15T06:46:16.145Z,66.15
2019-02-15T06:48:45.436Z,66.41
2019-02-15T06:51:14.727Z,66.43
2019-02-15T06:53:44.079Z,66.48
2019-02-15T06:56:13.400Z,65.80
2019-02-15T06:59:00.563Z,65.43
2019-02-15T07:01:48.794Z,65.31
2019-02-15T07:04:43.246Z,65.62
2019-02-15T07:07:15.323Z,65.82
2019-02-15T07:09:44.617Z,65.76
2019-02-15T07:12:17.076Z,65.86
2019-02-15T07:14:46.484Z,65.46
2019-02-15T07:17:15.804Z,65.61
2019-02-15T07:19:45.100Z,65.38
2019-02-15T07:22:14.377Z,65.42
2019-02-15T07:24:47.202Z,65.51
2019-02-15T07:27:16.582Z,65.54
2019-02-15T07:29:45.855Z,65.59
2019-02-15T07:32:20.829Z,65.99
2019-02-15T07:34:50.161Z,66.04
2019-02-15T07:37:19.455Z,66.33
2019-02-15T07:39:54.578Z,65.76
2019-02-15T07:42:24.326Z,65.12
2019-02-15T07:44:53.671Z,64.92
2019-02-15T07:47:23.020Z,64.67
2019-02-15T07:49:52.317Z,64.77
2019-02-15T07:52:21.603Z,64.99
2019-02-15T07:54:50.908Z,64.92
2019-02-15T07:57:21.235Z,64.97
2019-02-15T07:59:50.666Z,64.84
2019-02-15T08:02:19.955Z,65.09
2019-02-15T08:04:49.227Z,64.63
2019-02-15T08:07:18.582Z,64.54
2019-02-15T08:09:47.928Z,63.89
2019-02-15T08:12:17.908Z,63.09
2019-02-15T08:14:47.211Z,62.71
2019-02-15T08:17:16.585Z,63.04
2019-02-15T08:19:47.065Z,61.89
2019-02-15T08:22:16.425Z,61.70
2019-02-15T08:24:45.715Z,61.12
2019-02-15T08:27:14.973Z,60.69
2019-02-15T08:29:47.108Z,60.39
2019-02-15T08:32:19.352Z,60.50
2019-02-15T08:34:49.049Z,59.97
2019-02-15T08:37:18.597Z,59.59
2019-02-15T08:39:48.069Z,60.39
2019-02-15T08:42:17.333Z,59.96
2019-02-15T08:44:46.934Z,59.72
2019-02-15T08:47:18.656Z,59.99
2019-02-15T08:49:47.998Z,59.92
2019-02-15T08:52:21.335Z,60.12
2019-02-15T08:54:50.917Z,59.99
2019-02-15T08:57:20.633Z,59.46
2019-02-15T08:59:50.123Z,59.30
2019-02-15T09:02:23.939Z,58.25
2019-02-15T09:04:53.272Z,58.06
2019-02-15T09:07:24.705Z,58.02
2019-02-15T09:09:54.536Z,57.40
2019-02-15T09:12:24.028Z,56.96
2019-02-15T09:14:53.387Z,55.84
2019-02-15T09:17:22.697Z,55.58
2019-02-15T09:19:59.880Z,54.97
2019-02-15T09:22:29.331Z,55.19
2019-02-15T09:24:58.608Z,55.72
2019-02-15T09:28:05.216Z,54.84
2019-02-15T09:30:34.505Z,54.61
2019-02-15T09:33:06.368Z,54.80
2019-02-15T09:35:38.343Z,54.37
2019-02-15T09:38:07.706Z,53.89
2019-02-15T09:40:37.037Z,53.88
2019-02-15T09:43:06.598Z,52.59
2019-02-15T09:45:39.761Z,53.05
2019-02-15T09:48:09.858Z,52.53
2019-02-15T09:50:41.721Z,52.34
2019-02-15T09:53:11.541Z,53.02
2019-02-15T09:55:40.977Z,52.22
2019-02-15T09:58:10.291Z,51.90
2019-02-15T10:00:42.584Z,52.03
2019-02-15T10:03:12.067Z,51.68
2019-02-15T10:05:41.316Z,51.44
2019-02-15T10:08:10.563Z,51.16
2019-02-15T10:10:43.425Z,51.04
2019-02-15T10:13:13.461Z,49.61
2019-02-15T10:15:45.847Z,50.02
2019-02-15T10:18:15.760Z,50.18
2019-02-15T10:20:48.310Z,49.77
2019-02-15T10:23:28.017Z,49.75
2019-02-15T10:25:57.411Z,48.97
2019-02-15T10:28:26.857Z,48.76
2019-02-15T10:30:56.158Z,49.01
2019-02-15T10:33:25.959Z,47.94
2019-02-15T10:35:55.327Z,46.80
2019-02-15T10:38:24.631Z,47.05
2019-02-15T10:40:54.220Z,46.82
2019-02-15T10:43:23.531Z,46.39
2019-02-15T10:45:52.940Z,45.83
2019-02-15T10:48:27.335Z,45.10
2019-02-15T10:50:56.686Z,44.90
2019-02-15T10:53:26.358Z,44.65
2019-02-15T10:55:55.685Z,44.42
2019-02-15T10:58:26.390Z,44.18
2019-02-15T11:00:56.034Z,43.21
2019-02-15T11:03:25.319Z,43.52
2019-02-15T11:05:54.634Z,43.26
2019-02-15T11:08:24.558Z,42.90
2019-02-15T11:10:53.860Z,42.92
2019-02-15T11:13:23.132Z,42.25
2019-02-15T11:15:56.395Z,41.42
2019-02-15T11:18:25.715Z,41.65
2019-02-15T11:20:56.807Z,41.37
2019-02-15T11:23:26.164Z,41.76
2019-02-15T11:25:55.422Z,41.35
2019-02-15T11:28:27.037Z,39.82
2019-02-15T11:30:56.349Z,39.74
2019-02-15T11:33:25.828Z,39.62
2019-02-15T11:35:55.574Z,39.78
2019-02-15T11:38:24.897Z,39.81
2019-02-15T11:40:54.721Z,39.24
2019-02-15T11:43:24.052Z,39.13
2019-02-15T11:45:59.487Z,38.31
2019-02-15T11:48:29.519Z,38.02
2019-02-15T11:50:58.877Z,36.59
2019-02-15T11:53:28.215Z,37.57
2019-02-15T11:55:57.428Z,37.52
2019-02-15T11:58:26.646Z,37.60
2019-02-15T12:00:55.901Z,37.76
2019-02-15T12:03:25.171Z,38.00
2019-02-15T12:05:54.427Z,37.76
2019-02-15T12:08:23.696Z,37.81
2019-02-15T12:10:52.952Z,37.05
2019-02-15T12:13:22.402Z,36.84
2019-02-15T12:15:51.679Z,36.37
2019-02-15T12:18:20.959Z,36.21
2019-02-15T12:20:50.248Z,36.52
2019-02-15T12:23:19.511Z,36.16
2019-02-15T12:25:48.772Z,35.25
2019-02-15T12:28:18.757Z,34.90
2019-02-15T12:30:48.033Z,34.57
2019-02-15T12:33:17.276Z,34.08
2019-02-15T12:35:46.655Z,33.83
2019-02-15T12:38:15.878Z,33.69
2019-02-15T12:40:45.115Z,33.87
2019-02-15T12:43:14.307Z,34.19
2019-02-15T12:45:43.583Z,34.50
2019-02-15T12:48:12.803Z,34.53
2019-02-15T12:50:42.077Z,34.63
2019-02-15T12:53:11.267Z,35.14
2019-02-15T12:55:40.861Z,34.61
2019-02-15T12:58:10.288Z,34.85
2019-02-15T13:04:09.019Z,34.55
2019-02-15T13:06:38.399Z,33.74
2019-02-15T13:09:07.780Z,33.83
2019-02-15T13:11:38.349Z,33.82
2019-02-15T13:14:07.655Z,33.00
2019-02-15T13:16:36.901Z,32.83
2019-02-15T13:19:06.177Z,32.98
2019-02-15T13:21:35.531Z,33.49
2019-02-15T13:24:04.779Z,33.65
2019-02-15T13:26:34.037Z,33.24
2019-02-15T13:29:03.284Z,33.38
2019-02-15T13:31:32.608Z,33.93
2019-02-15T13:34:01.845Z,34.21
2019-02-15T13:36:31.121Z,33.72
2019-02-15T13:39:00.359Z,33.69
2019-02-15T13:41:29.658Z,33.70
2019-02-15T13:44:01.983Z,33.64
2019-02-15T13:46:33.238Z,33.77
2019-02-15T13:49:02.177Z,33.99
2019-02-15T13:51:31.490Z,34.44
2019-02-15T13:54:00.742Z,34.01
2019-02-15T13:56:30.024Z,34.04
2019-02-15T13:58:59.300Z,34.52
2019-02-15T14:01:28.563Z,33.58
2019-02-15T14:03:57.814Z,33.01
2019-02-15T14:06:27.053Z,33.77
2019-02-15T14:08:56.319Z,33.81
2019-02-15T14:11:25.559Z,34.30
2019-02-15T14:13:54.897Z,35.08
2019-02-15T14:16:24.264Z,35.25
2019-02-15T14:18:53.923Z,34.86
2019-02-15T14:21:23.193Z,35.29
2019-02-15T14:23:52.450Z,33.19
2019-02-15T14:26:22.117Z,33.99
2019-02-15T14:28:51.467Z,34.86
2019-02-15T14:31:23.473Z,35.32
2019-02-15T14:33:52.702Z,35.59
2019-02-15T14:36:22.044Z,32.75
2019-02-15T14:38:51.262Z,31.15
2019-02-15T14:41:20.485Z,31.13
2019-02-15T14:43:49.737Z,31.14
2019-02-15T14:46:18.978Z,30.94
2019-02-15T14:48:48.234Z,30.45
2019-02-15T14:51:17.556Z,29.83
2019-02-15T14:53:49.772Z,29.86
2019-02-15T14:56:19.047Z,30.74
2019-02-15T14:58:48.321Z,31.24
2019-02-15T15:01:17.565Z,31.33
2019-02-15T15:03:47.140Z,31.01
2019-02-15T15:06:16.589Z,30.63
2019-02-15T15:08:45.928Z,30.17
2019-02-15T15:11:15.286Z,30.52
2019-02-15T15:13:44.514Z,31.46
2019-02-15T15:16:23.499Z,32.17
2019-02-15T15:18:52.819Z,32.47
2019-02-15T15:21:22.054Z,32.35
2019-02-15T15:23:51.355Z,32.42
2019-02-15T15:27:08.749Z,32.34
2019-02-15T15:29:38.025Z,32.36
2019-02-15T15:32:07.351Z,31.46
2019-02-15T15:34:40.509Z,31.77
2019-02-15T15:37:16.534Z,31.62
2019-02-15T15:39:44.160Z,31.63
2019-02-15T15:42:13.442Z,31.18
2019-02-15T15:44:42.720Z,31.42
2019-02-15T15:47:12.058Z,31.19
2019-02-15T15:49:41.425Z,31.51
2019-02-15T15:52:10.758Z,30.95
2019-02-15T15:54:40.075Z,30.52
2019-02-15T15:57:09.388Z,30.46
2019-02-15T15:59:38.635Z,30.32
2019-02-15T16:02:07.976Z,30.31
2019-02-15T16:04:37.217Z,29.68
2019-02-15T16:07:06.559Z,29.41
2019-02-15T16:09:35.796Z,29.85
2019-02-15T16:12:05.098Z,29.64
2019-02-15T16:14:34.500Z,29.09
2019-02-15T16:17:03.825Z,29.18
2019-02-15T16:19:40.567Z,28.63
2019-02-15T16:22:04.251Z,28.99
2019-02-15T16:24:33.582Z,28.60
2019-02-15T16:27:02.901Z,28.39
2019-02-15T16:29:32.488Z,28.73
2019-02-15T16:32:01.771Z,28.81
2019-02-15T16:34:31.039Z,28.73
2019-02-15T16:37:00.352Z,29.09
2019-02-15T16:39:29.649Z,29.11
2019-02-15T16:41:58.902Z,29.13
2019-02-15T16:44:28.182Z,29.50
2019-02-15T16:46:57.545Z,29.74
2019-02-15T16:49:26.864Z,29.79
2019-02-15T16:51:56.199Z,29.89
2019-02-15T16:54:25.582Z,30.16
2019-02-15T16:56:56.141Z,30.31
2019-02-15T16:59:25.428Z,30.34
2019-02-15T17:01:54.760Z,30.18
2019-02-15T17:04:24.736Z,30.68
2019-02-15T17:06:54.054Z,30.95
2019-02-15T17:09:23.519Z,31.18
2019-02-15T17:11:52.892Z,31.37
2019-02-15T17:14:22.096Z,30.87
2019-02-15T17:16:52.496Z,31.26
2019-02-15T17:19:21.878Z,30.82
2019-02-15T17:21:51.097Z,31.33
2019-02-15T17:24:20.458Z,30.34
2019-02-15T17:26:49.696Z,29.87
2019-02-15T17:29:19.006Z,30.06
2019-02-15T17:31:49.517Z,29.58
2019-02-15T17:34:18.839Z,29.62
2019-02-15T17:36:48.473Z,29.66
2019-02-15T17:39:17.875Z,30.35
2019-02-15T17:41:47.689Z,29.67
2019-02-15T17:44:16.901Z,30.58
2019-02-15T17:46:46.171Z,29.74
2019-02-15T17:49:15.771Z,29.84
2019-02-15T17:51:45.075Z,30.15
2019-02-15T17:54:15.199Z,30.15
2019-02-15T17:56:44.511Z,29.44
2019-02-15T17:59:13.769Z,29.54
2019-02-15T18:01:43.070Z,29.53
2019-02-15T18:04:12.392Z,29.70
2019-02-15T18:06:41.759Z,30.12
2019-02-15T18:09:11.317Z,29.97
2019-02-15T18:11:40.757Z,30.20
2019-02-15T18:14:10.353Z,29.93
2019-02-15T18:16:49.390Z,29.97
2019-02-15T18:19:18.653Z,30.04
2019-02-15T18:21:47.922Z,29.90
2019-02-15T18:25:11.692Z,30.12
2019-02-15T18:27:41.407Z,30.43
2019-02-15T18:30:14.298Z,30.73
2019-02-15T18:32:43.545Z,30.91
2019-02-15T18:35:23.329Z,31.36
2019-02-15T18:37:54.690Z,31.62
2019-02-15T18:40:24.003Z,31.88
2019-02-15T18:42:57.086Z,32.00
2019-02-15T18:45:26.435Z,31.90
2019-02-15T18:48:19.452Z,32.02
2019-02-15T18:50:48.792Z,32.31
2019-02-15T18:53:18.177Z,32.62
2019-02-15T18:55:47.557Z,32.91
2019-02-15T18:58:16.877Z,33.24
2019-02-15T19:00:46.409Z,33.44
2019-02-15T19:03:15.940Z,33.61
2019-02-15T19:05:45.217Z,33.87
2019-02-15T19:08:14.568Z,33.83
2019-02-15T19:10:43.860Z,34.03
2019-02-15T19:13:20.543Z,34.36
2019-02-15T19:15:50.059Z,34.46
2019-02-15T19:18:19.340Z,34.83
2019-02-15T19:20:48.637Z,34.86
2019-02-15T19:24:24.049Z,34.95
2019-02-15T19:26:53.445Z,35.31
2019-02-15T19:29:22.729Z,35.74
2019-02-15T19:31:52.108Z,36.26
2019-02-15T19:34:21.887Z,36.37
2019-02-15T19:36:51.200Z,36.71
2019-02-15T19:39:20.535Z,37.06
2019-02-15T19:41:49.850Z,37.44
2019-02-15T19:44:19.181Z,37.85
2019-02-15T19:46:48.578Z,38.08
2019-02-15T19:49:19.146Z,38.31
2019-02-15T19:51:48.480Z,38.44
2019-02-15T19:54:17.960Z,38.91
2019-02-15T19:56:47.270Z,38.95
2019-02-15T19:59:16.611Z,39.02
2019-02-15T20:01:45.971Z,39.22
2019-02-15T20:04:15.279Z,39.29
2019-02-15T20:06:44.610Z,39.57
2019-02-15T20:09:14.077Z,39.94
2019-02-15T20:11:43.500Z,39.91
2019-02-15T20:14:13.170Z,40.11
2019-02-15T20:16:42.541Z,40.31
2019-02-15T20:19:11.858Z,40.59
2019-02-15T20:21:41.140Z,40.94
2019-02-15T20:24:10.501Z,41.04
2019-02-15T20:26:39.829Z,41.34
2019-02-15T20:29:09.381Z,41.55
2019-02-15T20:31:38.741Z,42.13
2019-02-15T20:34:08.060Z,42.07
2019-02-15T20:36:37.378Z,42.65
2019-02-15T20:39:06.820Z,42.74
2019-02-15T20:41:36.181Z,43.24
2019-02-15T20:44:05.675Z,43.52
2019-02-15T20:46:35.039Z,43.65
2019-02-15T20:49:05.086Z,44.03
2019-02-15T20:51:34.597Z,44.00
2019-02-15T20:54:04.089Z,44.20
2019-02-15T20:56:33.587Z,44.18
2019-02-15T20:59:02.998Z,44.31
2019-02-15T21:01:37.203Z,44.71
2019-02-15T21:04:06.979Z,44.82
2019-02-15T21:06:36.925Z,45.03
2019-02-15T21:09:07.532Z,45.22
2019-02-15T21:11:37.002Z,45.30
2019-02-15T21:14:06.345Z,45.68
2019-02-15T21:16:35.716Z,45.77
2019-02-15T21:19:04.973Z,45.85
2019-02-15T21:21:34.368Z,46.21
2019-02-15T21:24:03.899Z,46.41
2019-02-15T21:26:33.284Z,46.35
2019-02-15T21:29:02.742Z,46.50
2019-02-15T21:31:32.328Z,46.62
2019-02-15T21:34:03.109Z,46.69
2019-02-15T21:36:32.786Z,46.72
2019-02-15T21:39:02.305Z,46.85
2019-02-15T21:41:32.301Z,47.12
2019-02-15T21:44:01.627Z,46.98
2019-02-15T21:47:04.430Z,47.52
2019-02-15T21:49:33.734Z,47.79
2019-02-15T21:52:27.312Z,47.83
2019-02-15T21:54:56.535Z,48.07
2019-02-15T21:57:25.840Z,48.17
2019-02-15T21:59:55.143Z,48.07
2019-02-15T22:02:24.515Z,47.93
2019-02-15T22:04:53.779Z,48.20
2019-02-15T22:07:23.454Z,48.15
2019-02-15T22:09:52.690Z,48.02
2019-02-15T22:12:21.914Z,48.44
2019-02-15T22:14:51.214Z,48.42
2019-02-15T22:17:20.467Z,48.55
2019-02-15T22:19:49.746Z,48.62
2019-02-15T22:22:19.049Z,48.61
2019-02-15T22:24:48.321Z,48.41
2019-02-15T22:27:17.589Z,48.82
2019-02-15T22:29:46.988Z,49.02
2019-02-15T22:32:16.210Z,49.18
2019-02-15T22:34:45.463Z,49.07
2019-02-15T22:37:14.678Z,48.93
2019-02-15T22:39:43.993Z,48.85
2019-02-15T22:42:13.257Z,49.05
2019-02-15T22:44:42.540Z,49.21
2019-02-15T22:47:20.592Z,49.53
2019-02-15T22:49:49.829Z,49.73
2019-02-15T22:52:19.084Z,49.63
2019-02-15T22:54:48.332Z,49.84
2019-02-15T22:57:17.546Z,49.86
2019-02-15T22:59:46.782Z,49.96
2019-02-15T23:02:16.173Z,49.82
2019-02-15T23:04:45.416Z,50.37
2019-02-15T23:07:14.615Z,50.54
2019-02-15T23:09:43.901Z,50.83
2019-02-15T23:12:13.150Z,51.30
2019-02-15T23:14:42.416Z,51.71
2019-02-15T23:17:11.651Z,51.76
2019-02-15T23:19:40.908Z,51.69
2019-02-15T23:22:10.172Z,51.63
2019-02-15T23:24:39.408Z,51.62
2019-02-15T23:27:08.646Z,52.08
2019-02-15T23:29:37.882Z,52.19
2019-02-15T23:32:07.095Z,52.12
2019-02-15T23:34:36.331Z,52.32
2019-02-15T23:37:05.581Z,52.47
2019-02-15T23:39:34.805Z,52.86
2019-02-15T23:42:04.032Z,52.57
2019-02-15T23:44:33.627Z,52.28
2019-02-15T23:47:02.837Z,52.64
2019-02-15T23:49:32.101Z,52.47
2019-02-15T23:52:01.288Z,52.35
2019-02-15T23:54:30.525Z,52.57
2019-02-15T23:56:59.873Z,52.55
2019-02-15T23:59:35.578Z,52.60
